地図

経路データ

SID SEASON NUMBER BASIN SUBBASIN NAME ISO_TIME NATURE LAT LON WMO_WIND WMO_PRES WMO_AGENCY TRACK_TYPE DIST2LAND LANDFALL IFLAG USA_AGENCY USA_ATCF_ID USA_LAT USA_LON USA_RECORD USA_STATUS USA_WIND USA_PRES USA_SSHS USA_R34_NE USA_R34_SE USA_R34_SW USA_R34_NW USA_R50_NE USA_R50_SE USA_R50_SW USA_R50_NW USA_R64_NE USA_R64_SE USA_R64_SW USA_R64_NW USA_POCI USA_ROCI USA_RMW USA_EYE TOKYO_LAT TOKYO_LON TOKYO_GRADE TOKYO_WIND TOKYO_PRES TOKYO_R50_DIR TOKYO_R50_LONG TOKYO_R50_SHORT TOKYO_R30_DIR TOKYO_R30_LONG TOKYO_R30_SHORT TOKYO_LAND CMA_LAT CMA_LON CMA_CAT CMA_WIND CMA_PRES HKO_LAT HKO_LON HKO_CAT HKO_WIND HKO_PRES NEWDELHI_LAT NEWDELHI_LON NEWDELHI_GRADE NEWDELHI_WIND NEWDELHI_PRES NEWDELHI_CI NEWDELHI_DP NEWDELHI_POCI REUNION_LAT REUNION_LON REUNION_TYPE REUNION_WIND REUNION_PRES REUNION_TNUM REUNION_CI REUNION_RMW REUNION_R34_NE REUNION_R34_SE REUNION_R34_SW REUNION_R34_NW REUNION_R50_NE REUNION_R50_SE REUNION_R50_SW REUNION_R50_NW REUNION_R64_NE REUNION_R64_SE REUNION_R64_SW REUNION_R64_NW BOM_LAT BOM_LON BOM_TYPE BOM_WIND BOM_PRES BOM_TNUM BOM_CI BOM_RMW BOM_R34_NE BOM_R34_SE BOM_R34_SW BOM_R34_NW BOM_R50_NE BOM_R50_SE BOM_R50_SW BOM_R50_NW BOM_R64_NE BOM_R64_SE BOM_R64_SW BOM_R64_NW BOM_ROCI BOM_POCI BOM_EYE BOM_POS_METHOD BOM_PRES_METHOD NADI_LAT NADI_LON NADI_CAT NADI_WIND NADI_PRES WELLINGTON_LAT WELLINGTON_LON WELLINGTON_WIND WELLINGTON_PRES DS824_LAT DS824_LON DS824_STAGE DS824_WIND DS824_PRES TD9636_LAT TD9636_LON TD9636_STAGE TD9636_WIND TD9636_PRES TD9635_LAT TD9635_LON TD9635_WIND TD9635_PRES TD9635_ROCI NEUMANN_LAT NEUMANN_LON NEUMANN_CLASS NEUMANN_WIND NEUMANN_PRES MLC_LAT MLC_LON MLC_CLASS MLC_WIND MLC_PRES USA_GUST BOM_GUST BOM_GUST_PER REUNION_GUST REUNION_GUST_PER USA_SEAHGT USA_SEARAD_NE USA_SEARAD_SE USA_SEARAD_SW USA_SEARAD_NW STORM_SPEED STORM_DIR
1922018S13151 1922 5 SP EA NOT_NAMED 1922-01-17 23:00:00 NR -12.7000 150.800 main 228 228 __________O___ -1 -12.7000 150.800 7 7 128
1922018S13151 1922 5 SP EA NOT_NAMED 1922-01-18 00:00:00 NR -12.7696 150.890 main 241 241 __________P___ -1 -12.7696 150.890 7 7 129
1922018S13151 1922 5 SP EA NOT_NAMED 1922-01-18 03:00:00 NR -12.9769 151.157 main 271 271 __________P___ -1 -12.9769 151.157 7 7 129
1922018S13151 1922 5 SP EA NOT_NAMED 1922-01-18 06:00:00 NR -13.1798 151.414 main 300 300 __________P___ -1 -13.1798 151.414 7 6 129
1922018S13151 1922 5 SP EA NOT_NAMED 1922-01-18 09:00:00 NR -13.3753 151.653 main 331 331 __________P___ -1 -13.3753 151.653 7 6 131
1922018S13151 1922 5 SP EA NOT_NAMED 1922-01-18 11:00:00 NR -13.5000 151.800 main 346 346 __________O___ -1 -13.5000 151.800 7 6 131
1922018S13151 1922 5 SP EA NOT_NAMED 1922-01-18 12:00:00 NR -13.5604 151.869 main 360 360 __________P___ -1 -13.5604 151.869 7 5 133
1922018S13151 1922 5 SP EA NOT_NAMED 1922-01-18 15:00:00 NR -13.7355 152.061 main 379 379 __________P___ -1 -13.7355 152.061 7 5 133
1922018S13151 1922 5 SP EA NOT_NAMED 1922-01-18 18:00:00 NR -13.9067 152.248 main 403 403 __________P___ -1 -13.9067 152.248 7 5 132
1922018S13151 1922 5 SP EA NOT_NAMED 1922-01-18 21:00:00 NR -14.0801 152.449 main 433 433 __________P___ -1 -14.0801 152.449 7 5 131
1922018S13151 1922 5 SP EA NOT_NAMED 1922-01-18 23:00:00 NR -14.2000 152.600 main 452 452 __________O___ -1 -14.2000 152.600 7 6 128
1922018S13151 1922 5 SP EA NOT_NAMED 1922-01-19 00:00:00 NR -14.2621 152.688 main 467 467 __________P___ -1 -14.2621 152.688 7 7 125
1922018S13151 1922 5 SP EA NOT_NAMED 1922-01-19 03:00:00 NR -14.4534 152.974 main 503 503 __________P___ -1 -14.4534 152.974 7 7 124
1922018S13151 1922 5 SP EA NOT_NAMED 1922-01-19 06:00:00 NR -14.6522 153.282 main 538 538 __________P___ -1 -14.6522 153.282 7 7 124
1922018S13151 1922 5 SP EA NOT_NAMED 1922-01-19 09:00:00 NR -14.8584 153.595 main 575 575 __________P___ -1 -14.8584 153.595 7 7 125
1922018S13151 1922 5 SP EA NOT_NAMED 1922-01-19 11:00:00 NR -15.0000 153.800 main 596 596 __________O___ -1 -15.0000 153.800 7 7 126
1922018S13151 1922 5 SP EA NOT_NAMED 1922-01-19 12:00:00 NR -15.0679 153.891 main 611 611 __________P___ -1 -15.0679 153.891 7 7 129
1922018S13151 1922 5 SP EA NOT_NAMED 1922-01-19 15:00:00 NR -15.2755 154.159 main 648 648 __________P___ -1 -15.2755 154.159 7 7 130
1922018S13151 1922 5 SP EA NOT_NAMED 1922-01-19 18:00:00 NR -15.4941 154.425 main 679 679 __________P___ -1 -15.4941 154.425 7 7 131
1922018S13151 1922 5 SP EA NOT_NAMED 1922-01-19 21:00:00 NR -15.7300 154.703 main 716 716 __________P___ -1 -15.7300 154.703 7 7 132
1922018S13151 1922 5 SP EA NOT_NAMED 1922-01-19 23:00:00 NR -15.9000 154.900 main 747 747 __________O___ -1 -15.9000 154.900 7 8 132
1922018S13151 1922 5 SP EA NOT_NAMED 1922-01-20 00:00:00 NR -15.9924 155.004 main 762 762 __________P___ -1 -15.9924 155.004 7 9 133
1922018S13151 1922 5 SP EA NOT_NAMED 1922-01-20 03:00:00 NR -16.2870 155.332 main 809 809 __________P___ -1 -16.2870 155.332 7 9 133
1922018S13151 1922 5 SP EA NOT_NAMED 1922-01-20 06:00:00 NR -16.5959 155.681 main 833 828 __________P___ -1 -16.5959 155.681 7 9 132
1922018S13151 1922 5 SP EA NOT_NAMED 1922-01-20 09:00:00 NR -16.9034 156.047 main 828 826 __________P___ -1 -16.9034 156.047 7 9 130
1922018S13151 1922 5 SP EA NOT_NAMED 1922-01-20 11:00:00 NR -17.1000 156.300 main 833 832 __________O___ -1 -17.1000 156.300 7 9 128
1922018S13151 1922 5 SP EA NOT_NAMED 1922-01-20 12:00:00 NR -17.1763 156.416 main 832 824 __________P___ -1 -17.1763 156.416 7 8 123
1922018S13151 1922 5 SP EA NOT_NAMED 1922-01-20 15:00:00 NR -17.3885 156.771 main 824 785 __________P___ -1 -17.3885 156.771 7 8 122
1922018S13151 1922 5 SP EA NOT_NAMED 1922-01-20 18:00:00 NR -17.6078 157.151 main 776 724 __________P___ -1 -17.6078 157.151 7 9 122
1922018S13151 1922 5 SP EA NOT_NAMED 1922-01-20 21:00:00 NR -17.8751 157.578 main 724 686 __________P___ -1 -17.8751 157.578 7 10 125
1922018S13151 1922 5 SP EA NOT_NAMED 1922-01-20 23:00:00 NR -18.1000 157.900 main 686 672 __________O___ -1 -18.1000 157.900 7 12 128
1922018S13151 1922 5 SP EA NOT_NAMED 1922-01-21 00:00:00 NR -18.2407 158.077 main 662 593 __________P___ -1 -18.2407 158.077 7 14 131
1922018S13151 1922 5 SP EA NOT_NAMED 1922-01-21 03:00:00 NR -18.7242 158.656 main 583 506 __________P___ -1 -18.7242 158.656 7 15 132
1922018S13151 1922 5 SP EA NOT_NAMED 1922-01-21 06:00:00 NR -19.2684 159.290 main 504 431 __________P___ -1 -19.2684 159.290 7 17 132
1922018S13151 1922 5 SP EA NOT_NAMED 1922-01-21 09:00:00 NR -19.8326 159.954 main 421 375 __________P___ -1 -19.8326 159.954 7 17 132
1922018S13151 1922 5 SP MM NOT_NAMED 1922-01-21 11:00:00 NR -20.2000 160.400 main 375 354 __________O___ -1 -20.2000 160.400 7 17 131
1922018S13151 1922 5 SP MM NOT_NAMED 1922-01-21 12:00:00 NR -20.3800 160.634 main 354 288 __________P___ -1 -20.3800 160.634 7 17 129
1922018S13151 1922 5 SP MM NOT_NAMED 1922-01-21 15:00:00 NR -20.9153 161.349 main 288 241 __________P___ -1 -20.9153 161.349 7 17 128
1922018S13151 1922 5 SP MM NOT_NAMED 1922-01-21 18:00:00 NR -21.4185 162.043 main 241 217 __________P___ -1 -21.4185 162.043 7 15 128
1922018S13151 1922 5 SP MM NOT_NAMED 1922-01-21 21:00:00 NR -21.8578 162.660 main 214 205 __________P___ -1 -21.8578 162.660 7 13 127
1922018S13151 1922 5 SP MM NOT_NAMED 1922-01-21 23:00:00 NR -22.1000 163.000 main 205 205 __________O___ -1 -22.1000 163.000 7 11 128
1922018S13151 1922 5 SP MM NOT_NAMED 1922-01-22 00:00:00 NR -22.2016 163.135 main 206 190 __________P___ -1 -22.2016 163.135 7 8 130
1922018S13151 1922 5 SP MM NOT_NAMED 1922-01-22 03:00:00 NR -22.4426 163.448 main 190 181 __________P___ -1 -22.4426 163.448 7 6 130
1922018S13151 1922 5 SP MM NOT_NAMED 1922-01-22 06:00:00 NR -22.6099 163.656 main 182 182 __________P___ -1 -22.6099 163.656 7 4 131
1922018S13151 1922 5 SP MM NOT_NAMED 1922-01-22 09:00:00 NR -22.7312 163.807 main 184 184 __________P___ -1 -22.7312 163.807 7 4 130
1922018S13151 1922 5 SP MM NOT_NAMED 1922-01-22 11:00:00 NR -22.8000 163.900 main 187 187 __________O___ -1 -22.8000 163.900 7 3 128
1922018S13151 1922 5 SP MM NOT_NAMED 1922-01-22 12:00:00 NR -22.8336 163.949 main 187 181 __________P___ -1 -22.8336 163.949 7 4 125
1922018S13151 1922 5 SP MM NOT_NAMED 1922-01-22 15:00:00 NR -22.9342 164.110 main 186 186 __________P___ -1 -22.9342 164.110 7 4 123
1922018S13151 1922 5 SP MM NOT_NAMED 1922-01-22 18:00:00 NR -23.0342 164.287 main 187 186 __________P___ -1 -23.0342 164.287 7 4 121
1922018S13151 1922 5 SP MM NOT_NAMED 1922-01-22 21:00:00 NR -23.1338 164.473 main 186 186 __________P___ -1 -23.1338 164.473 7 4 120
1922018S13151 1922 5 SP MM NOT_NAMED 1922-01-22 23:00:00 NR -23.2000 164.600 main 190 __________O___ -1 -23.2000 164.600 7 4 119

デジタル台風データ・検索

IBTrACS Databaseについて

本データベースは、米国NOAAが公開する1842年以降の世界の熱帯低気圧のベストトラックデータアーカイブInternational Best Track Archive for Climate Stewardship (IBTrACS)を、ウェブで閲覧しやすい形式に変換したものです。

最終更新日:2021-12-03